sensor_id;sensor_type;location;lat;lon;timestamp;temperature;humidity
37646;DHT22;23489;49.600;6.138;2023-11-21T00:00:13;8.60;99.90
37646;DHT22;23489;49.600;6.138;2023-11-21T00:02:39;8.50;99.90
37646;DHT22;23489;49.600;6.138;2023-11-21T00:05:09;8.50;99.90
37646;DHT22;23489;49.600;6.138;2023-11-21T00:07:36;8.50;99.90
37646;DHT22;23489;49.600;6.138;2023-11-21T00:10:02;8.50;99.90
37646;DHT22;23489;49.600;6.138;2023-11-21T00:12:28;8.30;99.90
37646;DHT22;23489;49.600;6.138;2023-11-21T00:14:55;8.30;99.90
37646;DHT22;23489;49.600;6.138;2023-11-21T00:17:20;8.20;99.90
37646;DHT22;23489;49.600;6.138;2023-11-21T00:19:46;8.20;99.90
37646;DHT22;23489;49.600;6.138;2023-11-21T00:22:12;8.10;99.90
37646;DHT22;23489;49.600;6.138;2023-11-21T00:24:37;8.10;99.90
37646;DHT22;23489;49.600;6.138;2023-11-21T00:27:03;8.10;99.90
37646;DHT22;23489;49.600;6.138;2023-11-21T00:29:29;8.00;99.90
37646;DHT22;23489;49.600;6.138;2023-11-21T00:31:55;8.00;99.90
37646;DHT22;23489;49.600;6.138;2023-11-21T00:34:21;7.90;99.90
37646;DHT22;23489;49.600;6.138;2023-11-21T00:36:46;7.90;99.90
37646;DHT22;23489;49.600;6.138;2023-11-21T00:39:12;7.90;99.90
37646;DHT22;23489;49.600;6.138;2023-11-21T00:41:37;7.90;99.90
37646;DHT22;23489;49.600;6.138;2023-11-21T00:44:03;7.80;99.90
37646;DHT22;23489;49.600;6.138;2023-11-21T00:46:29;7.80;99.90
37646;DHT22;23489;49.600;6.138;2023-11-21T00:48:55;7.80;99.90
37646;DHT22;23489;49.600;6.138;2023-11-21T00:51:22;7.80;99.90
37646;DHT22;23489;49.600;6.138;2023-11-21T00:53:48;7.90;99.90
37646;DHT22;23489;49.600;6.138;2023-11-21T00:56:13;7.90;99.90
37646;DHT22;23489;49.600;6.138;2023-11-21T00:58:40;7.90;99.90
37646;DHT22;23489;49.600;6.138;2023-11-21T01:01:12;7.90;99.90
37646;DHT22;23489;49.600;6.138;2023-11-21T01:03:38;7.80;99.90
37646;DHT22;23489;49.600;6.138;2023-11-21T01:06:04;7.80;99.90
37646;DHT22;23489;49.600;6.138;2023-11-21T01:08:32;7.80;99.90
37646;DHT22;23489;49.600;6.138;2023-11-21T01:10:58;7.80;99.90
37646;DHT22;23489;49.600;6.138;2023-11-21T01:13:24;7.80;99.90
37646;DHT22;23489;49.600;6.138;2023-11-21T01:15:53;7.80;99.90
37646;DHT22;23489;49.600;6.138;2023-11-21T01:18:19;7.90;99.90
37646;DHT22;23489;49.600;6.138;2023-11-21T01:20:44;7.90;99.90
37646;DHT22;23489;49.600;6.138;2023-11-21T01:23:13;8.00;99.90
37646;DHT22;23489;49.600;6.138;2023-11-21T01:25:38;8.00;99.90
37646;DHT22;23489;49.600;6.138;2023-11-21T01:28:04;8.00;99.90
37646;DHT22;23489;49.600;6.138;2023-11-21T01:30:30;8.10;99.90
37646;DHT22;23489;49.600;6.138;2023-11-21T01:32:58;8.00;99.90
37646;DHT22;23489;49.600;6.138;2023-11-21T01:35:23;8.00;99.90
37646;DHT22;23489;49.600;6.138;2023-11-21T01:37:49;8.00;99.90
37646;DHT22;23489;49.600;6.138;2023-11-21T01:40:15;8.10;99.90
37646;DHT22;23489;49.600;6.138;2023-11-21T01:42:41;8.10;99.90
37646;DHT22;23489;49.600;6.138;2023-11-21T01:45:09;8.10;99.90
37646;DHT22;23489;49.600;6.138;2023-11-21T01:47:35;8.10;99.90
37646;DHT22;23489;49.600;6.138;2023-11-21T01:50:02;8.20;99.90
37646;DHT22;23489;49.600;6.138;2023-11-21T01:52:30;8.20;99.90
37646;DHT22;23489;49.600;6.138;2023-11-21T01:54:56;8.20;99.90
37646;DHT22;23489;49.600;6.138;2023-11-21T01:57:23;8.20;99.90
37646;DHT22;23489;49.600;6.138;2023-11-21T01:59:49;8.20;99.90
37646;DHT22;23489;49.600;6.138;2023-11-21T02:02:17;8.20;99.90
37646;DHT22;23489;49.600;6.138;2023-11-21T02:04:42;8.30;99.90
37646;DHT22;23489;49.600;6.138;2023-11-21T02:07:08;8.20;99.90
37646;DHT22;23489;49.600;6.138;2023-11-21T02:09:34;8.30;99.90
37646;DHT22;23489;49.600;6.138;2023-11-21T02:12:03;8.20;99.90
37646;DHT22;23489;49.600;6.138;2023-11-21T02:14:30;8.20;99.90
37646;DHT22;23489;49.600;6.138;2023-11-21T02:16:57;8.30;99.90
37646;DHT22;23489;49.600;6.138;2023-11-21T02:19:23;8.30;99.90
37646;DHT22;23489;49.600;6.138;2023-11-21T02:21:52;8.20;99.90
37646;DHT22;23489;49.600;6.138;2023-11-21T02:24:21;8.20;99.90
37646;DHT22;23489;49.600;6.138;2023-11-21T02:26:48;8.20;99.90
37646;DHT22;23489;49.600;6.138;2023-11-21T02:29:20;8.10;99.90
37646;DHT22;23489;49.600;6.138;2023-11-21T02:31:49;8.10;99.90
37646;DHT22;23489;49.600;6.138;2023-11-21T02:34:15;8.20;99.90
37646;DHT22;23489;49.600;6.138;2023-11-21T02:36:42;8.10;99.90
37646;DHT22;23489;49.600;6.138;2023-11-21T02:39:08;8.10;99.90
37646;DHT22;23489;49.600;6.138;2023-11-21T02:41:34;8.10;99.90
37646;DHT22;23489;49.600;6.138;2023-11-21T02:44:00;8.00;99.90
37646;DHT22;23489;49.600;6.138;2023-11-21T02:46:26;8.00;99.90
37646;DHT22;23489;49.600;6.138;2023-11-21T02:48:51;8.00;99.90
37646;DHT22;23489;49.600;6.138;2023-11-21T02:51:19;8.00;99.90
37646;DHT22;23489;49.600;6.138;2023-11-21T02:53:44;8.00;99.90
37646;DHT22;23489;49.600;6.138;2023-11-21T02:56:12;8.00;99.90
37646;DHT22;23489;49.600;6.138;2023-11-21T02:58:37;8.00;99.90
37646;DHT22;23489;49.600;6.138;2023-11-21T03:01:03;8.00;99.90
37646;DHT22;23489;49.600;6.138;2023-11-21T03:03:32;7.90;99.90
37646;DHT22;23489;49.600;6.138;2023-11-21T03:05:58;7.90;99.90
37646;DHT22;23489;49.600;6.138;2023-11-21T03:08:23;7.90;99.90
37646;DHT22;23489;49.600;6.138;2023-11-21T03:10:49;7.90;99.90
37646;DHT22;23489;49.600;6.138;2023-11-21T03:13:15;7.90;99.90
37646;DHT22;23489;49.600;6.138;2023-11-21T03:15:41;7.80;99.90
37646;DHT22;23489;49.600;6.138;2023-11-21T03:18:08;7.80;99.90
37646;DHT22;23489;49.600;6.138;2023-11-21T03:20:33;7.80;99.90
37646;DHT22;23489;49.600;6.138;2023-11-21T03:23:00;7.80;99.90
37646;DHT22;23489;49.600;6.138;2023-11-21T03:25:26;7.70;99.90
37646;DHT22;23489;49.600;6.138;2023-11-21T03:27:52;7.70;99.90
37646;DHT22;23489;49.600;6.138;2023-11-21T03:30:18;7.70;99.90
37646;DHT22;23489;49.600;6.138;2023-11-21T03:32:44;7.60;99.90
37646;DHT22;23489;49.600;6.138;2023-11-21T03:35:09;7.60;99.90
37646;DHT22;23489;49.600;6.138;2023-11-21T03:37:36;7.60;99.90
37646;DHT22;23489;49.600;6.138;2023-11-21T03:40:04;7.60;99.90
37646;DHT22;23489;49.600;6.138;2023-11-21T03:42:30;7.60;99.90
37646;DHT22;23489;49.600;6.138;2023-11-21T03:44:55;7.60;99.90
37646;DHT22;23489;49.600;6.138;2023-11-21T03:47:21;7.60;99.90
37646;DHT22;23489;49.600;6.138;2023-11-21T03:49:47;7.60;99.90
37646;DHT22;23489;49.600;6.138;2023-11-21T03:52:15;7.70;99.90
37646;DHT22;23489;49.600;6.138;2023-11-21T03:54:41;7.70;99.90
37646;DHT22;23489;49.600;6.138;2023-11-21T03:57:07;7.60;99.90
37646;DHT22;23489;49.600;6.138;2023-11-21T03:59:35;7.70;99.90
37646;DHT22;23489;49.600;6.138;2023-11-21T04:02:01;7.70;99.90
37646;DHT22;23489;49.600;6.138;2023-11-21T04:04:27;7.70;99.90
37646;DHT22;23489;49.600;6.138;2023-11-21T04:06:53;7.70;99.90
37646;DHT22;23489;49.600;6.138;2023-11-21T04:09:19;7.70;99.90
37646;DHT22;23489;49.600;6.138;2023-11-21T04:11:44;7.60;99.90
37646;DHT22;23489;49.600;6.138;2023-11-21T04:14:11;7.70;99.90
37646;DHT22;23489;49.600;6.138;2023-11-21T04:16:36;7.70;99.90
37646;DHT22;23489;49.600;6.138;2023-11-21T04:19:02;7.70;99.90
37646;DHT22;23489;49.600;6.138;2023-11-21T04:21:27;7.70;99.90
37646;DHT22;23489;49.600;6.138;2023-11-21T04:23:53;7.70;99.90
37646;DHT22;23489;49.600;6.138;2023-11-21T04:26:19;7.70;99.90
37646;DHT22;23489;49.600;6.138;2023-11-21T04:28:44;7.70;99.90
37646;DHT22;23489;49.600;6.138;2023-11-21T04:31:10;7.60;99.90
37646;DHT22;23489;49.600;6.138;2023-11-21T04:33:35;7.60;99.90
37646;DHT22;23489;49.600;6.138;2023-11-21T04:36:01;7.60;99.90
37646;DHT22;23489;49.600;6.138;2023-11-21T04:38:27;7.50;99.90
37646;DHT22;23489;49.600;6.138;2023-11-21T04:40:53;7.50;99.90
37646;DHT22;23489;49.600;6.138;2023-11-21T04:43:18;7.60;99.90
37646;DHT22;23489;49.600;6.138;2023-11-21T04:45:44;7.60;99.90
37646;DHT22;23489;49.600;6.138;2023-11-21T04:48:09;7.60;99.90
37646;DHT22;23489;49.600;6.138;2023-11-21T04:50:35;7.60;99.90
37646;DHT22;23489;49.600;6.138;2023-11-21T04:53:00;7.70;99.90
37646;DHT22;23489;49.600;6.138;2023-11-21T04:55:26;7.70;99.90
37646;DHT22;23489;49.600;6.138;2023-11-21T04:57:54;7.60;99.90
37646;DHT22;23489;49.600;6.138;2023-11-21T05:00:19;7.70;99.90
37646;DHT22;23489;49.600;6.138;2023-11-21T05:02:46;7.70;99.90
37646;DHT22;23489;49.600;6.138;2023-11-21T05:05:12;7.70;99.90
37646;DHT22;23489;49.600;6.138;2023-11-21T05:07:39;7.70;99.90
37646;DHT22;23489;49.600;6.138;2023-11-21T05:10:06;7.70;99.90
37646;DHT22;23489;49.600;6.138;2023-11-21T05:12:35;7.70;99.90
37646;DHT22;23489;49.600;6.138;2023-11-21T05:15:04;7.60;99.90
37646;DHT22;23489;49.600;6.138;2023-11-21T05:17:33;7.60;99.90
37646;DHT22;23489;49.600;6.138;2023-11-21T05:19:59;7.60;99.90
37646;DHT22;23489;49.600;6.138;2023-11-21T05:22:29;7.60;99.90
37646;DHT22;23489;49.600;6.138;2023-11-21T05:24:54;7.60;99.90
37646;DHT22;23489;49.600;6.138;2023-11-21T05:27:20;7.70;99.90
37646;DHT22;23489;49.600;6.138;2023-11-21T05:29:46;7.70;99.90
37646;DHT22;23489;49.600;6.138;2023-11-21T05:32:11;7.70;99.90
37646;DHT22;23489;49.600;6.138;2023-11-21T05:34:37;7.70;99.90
37646;DHT22;23489;49.600;6.138;2023-11-21T05:37:02;7.70;99.90
37646;DHT22;23489;49.600;6.138;2023-11-21T05:39:28;7.70;99.90
37646;DHT22;23489;49.600;6.138;2023-11-21T05:41:53;7.70;99.90
37646;DHT22;23489;49.600;6.138;2023-11-21T05:44:19;7.70;99.90
37646;DHT22;23489;49.600;6.138;2023-11-21T05:46:45;7.70;99.90
37646;DHT22;23489;49.600;6.138;2023-11-21T05:49:10;7.70;99.90
37646;DHT22;23489;49.600;6.138;2023-11-21T05:51:37;7.70;99.90
37646;DHT22;23489;49.600;6.138;2023-11-21T05:54:03;7.70;99.90
37646;DHT22;23489;49.600;6.138;2023-11-21T05:56:29;7.70;99.90
37646;DHT22;23489;49.600;6.138;2023-11-21T05:58:55;7.70;99.90
37646;DHT22;23489;49.600;6.138;2023-11-21T06:01:21;7.70;99.90
37646;DHT22;23489;49.600;6.138;2023-11-21T06:03:46;7.60;99.90
37646;DHT22;23489;49.600;6.138;2023-11-21T06:06:12;7.60;99.90
37646;DHT22;23489;49.600;6.138;2023-11-21T06:08:37;7.60;99.90
37646;DHT22;23489;49.600;6.138;2023-11-21T06:11:03;7.60;99.90
37646;DHT22;23489;49.600;6.138;2023-11-21T06:13:29;7.60;99.90
37646;DHT22;23489;49.600;6.138;2023-11-21T06:15:54;7.50;99.90
37646;DHT22;23489;49.600;6.138;2023-11-21T06:18:20;7.60;99.90
37646;DHT22;23489;49.600;6.138;2023-11-21T06:20:46;7.50;99.90
37646;DHT22;23489;49.600;6.138;2023-11-21T06:23:12;7.50;99.90
37646;DHT22;23489;49.600;6.138;2023-11-21T06:25:37;7.60;99.90
37646;DHT22;23489;49.600;6.138;2023-11-21T06:28:03;7.60;99.90
37646;DHT22;23489;49.600;6.138;2023-11-21T06:30:29;7.50;99.90
37646;DHT22;23489;49.600;6.138;2023-11-21T06:32:54;7.60;99.90
37646;DHT22;23489;49.600;6.138;2023-11-21T06:35:20;7.60;99.90
37646;DHT22;23489;49.600;6.138;2023-11-21T06:37:46;7.60;99.90
37646;DHT22;23489;49.600;6.138;2023-11-21T06:40:13;7.60;99.90
37646;DHT22;23489;49.600;6.138;2023-11-21T06:42:40;7.60;99.90
37646;DHT22;23489;49.600;6.138;2023-11-21T06:45:07;7.60;99.90
37646;DHT22;23489;49.600;6.138;2023-11-21T06:47:33;7.60;99.90
37646;DHT22;23489;49.600;6.138;2023-11-21T06:49:59;7.60;99.90
37646;DHT22;23489;49.600;6.138;2023-11-21T06:52:25;7.60;99.90
37646;DHT22;23489;49.600;6.138;2023-11-21T06:54:51;7.60;99.90
37646;DHT22;23489;49.600;6.138;2023-11-21T06:57:17;7.70;99.90
37646;DHT22;23489;49.600;6.138;2023-11-21T06:59:43;7.70;99.90
37646;DHT22;23489;49.600;6.138;2023-11-21T07:02:08;7.70;99.90
37646;DHT22;23489;49.600;6.138;2023-11-21T07:04:35;7.70;99.90
37646;DHT22;23489;49.600;6.138;2023-11-21T07:07:02;7.70;99.90
37646;DHT22;23489;49.600;6.138;2023-11-21T07:09:28;7.70;99.90
37646;DHT22;23489;49.600;6.138;2023-11-21T07:11:54;7.70;99.90
37646;DHT22;23489;49.600;6.138;2023-11-21T07:14:21;7.80;99.90
37646;DHT22;23489;49.600;6.138;2023-11-21T07:16:47;7.80;99.90
37646;DHT22;23489;49.600;6.138;2023-11-21T07:19:13;7.80;99.90
37646;DHT22;23489;49.600;6.138;2023-11-21T07:21:39;7.80;99.90
37646;DHT22;23489;49.600;6.138;2023-11-21T07:24:06;7.80;99.90
37646;DHT22;23489;49.600;6.138;2023-11-21T07:26:32;7.80;99.90
37646;DHT22;23489;49.600;6.138;2023-11-21T07:28:59;7.80;99.90
37646;DHT22;23489;49.600;6.138;2023-11-21T07:31:25;7.80;99.90
37646;DHT22;23489;49.600;6.138;2023-11-21T07:33:51;7.80;99.90
37646;DHT22;23489;49.600;6.138;2023-11-21T07:36:18;7.80;99.90
37646;DHT22;23489;49.600;6.138;2023-11-21T07:38:44;7.80;99.90
37646;DHT22;23489;49.600;6.138;2023-11-21T07:41:10;7.80;99.90
37646;DHT22;23489;49.600;6.138;2023-11-21T07:43:37;7.80;99.90
37646;DHT22;23489;49.600;6.138;2023-11-21T07:46:03;7.80;99.90
37646;DHT22;23489;49.600;6.138;2023-11-21T07:48:32;7.80;99.90
37646;DHT22;23489;49.600;6.138;2023-11-21T07:50:58;7.90;99.90
37646;DHT22;23489;49.600;6.138;2023-11-21T07:53:24;7.90;99.90
37646;DHT22;23489;49.600;6.138;2023-11-21T07:55:56;7.90;99.90
37646;DHT22;23489;49.600;6.138;2023-11-21T07:58:22;7.90;99.90
37646;DHT22;23489;49.600;6.138;2023-11-21T08:00:52;8.00;99.90
37646;DHT22;23489;49.600;6.138;2023-11-21T08:03:17;8.00;99.90
37646;DHT22;23489;49.600;6.138;2023-11-21T08:05:43;8.00;99.90
37646;DHT22;23489;49.600;6.138;2023-11-21T08:08:08;8.10;99.90
37646;DHT22;23489;49.600;6.138;2023-11-21T08:10:34;8.00;99.90
37646;DHT22;23489;49.600;6.138;2023-11-21T08:13:01;8.00;99.90
37646;DHT22;23489;49.600;6.138;2023-11-21T08:15:27;8.00;99.90
37646;DHT22;23489;49.600;6.138;2023-11-21T08:17:52;8.10;99.90
37646;DHT22;23489;49.600;6.138;2023-11-21T08:20:18;8.10;99.90
37646;DHT22;23489;49.600;6.138;2023-11-21T08:22:44;8.10;99.90
37646;DHT22;23489;49.600;6.138;2023-11-21T08:25:10;8.10;99.90
37646;DHT22;23489;49.600;6.138;2023-11-21T08:27:36;8.10;99.90
37646;DHT22;23489;49.600;6.138;2023-11-21T08:30:05;8.10;99.90
37646;DHT22;23489;49.600;6.138;2023-11-21T08:32:31;8.20;99.90
37646;DHT22;23489;49.600;6.138;2023-11-21T08:34:58;8.20;99.90
37646;DHT22;23489;49.600;6.138;2023-11-21T08:37:24;8.20;99.90
37646;DHT22;23489;49.600;6.138;2023-11-21T08:39:53;8.30;99.90
37646;DHT22;23489;49.600;6.138;2023-11-21T08:42:19;8.30;99.90
37646;DHT22;23489;49.600;6.138;2023-11-21T08:44:45;8.30;99.90
37646;DHT22;23489;49.600;6.138;2023-11-21T08:47:11;8.30;99.90
37646;DHT22;23489;49.600;6.138;2023-11-21T08:49:37;8.30;99.90
37646;DHT22;23489;49.600;6.138;2023-11-21T08:52:03;8.30;99.90
37646;DHT22;23489;49.600;6.138;2023-11-21T08:54:30;8.30;99.90
37646;DHT22;23489;49.600;6.138;2023-11-21T08:56:56;8.30;99.90
37646;DHT22;23489;49.600;6.138;2023-11-21T08:59:24;8.30;99.90
37646;DHT22;23489;49.600;6.138;2023-11-21T09:01:49;8.30;99.90
37646;DHT22;23489;49.600;6.138;2023-11-21T09:04:15;8.40;99.90
37646;DHT22;23489;49.600;6.138;2023-11-21T09:06:40;8.40;99.90
37646;DHT22;23489;49.600;6.138;2023-11-21T09:09:06;8.40;99.90
37646;DHT22;23489;49.600;6.138;2023-11-21T09:11:33;8.40;99.90
37646;DHT22;23489;49.600;6.138;2023-11-21T09:13:59;8.40;99.90
37646;DHT22;23489;49.600;6.138;2023-11-21T09:16:25;8.50;99.90
37646;DHT22;23489;49.600;6.138;2023-11-21T09:18:51;8.60;99.90
37646;DHT22;23489;49.600;6.138;2023-11-21T09:21:16;8.60;99.90
37646;DHT22;23489;49.600;6.138;2023-11-21T09:23:44;8.70;99.90
37646;DHT22;23489;49.600;6.138;2023-11-21T09:26:10;8.80;99.90
37646;DHT22;23489;49.600;6.138;2023-11-21T09:28:35;8.80;99.90
37646;DHT22;23489;49.600;6.138;2023-11-21T09:31:04;8.90;99.90
37646;DHT22;23489;49.600;6.138;2023-11-21T09:33:30;8.90;99.90
37646;DHT22;23489;49.600;6.138;2023-11-21T09:35:56;9.10;99.90
37646;DHT22;23489;49.600;6.138;2023-11-21T09:38:23;9.20;99.90
37646;DHT22;23489;49.600;6.138;2023-11-21T09:40:48;9.30;99.90
37646;DHT22;23489;49.600;6.138;2023-11-21T09:43:16;9.20;99.90
37646;DHT22;23489;49.600;6.138;2023-11-21T09:45:47;9.20;99.90
37646;DHT22;23489;49.600;6.138;2023-11-21T09:48:14;9.20;99.90
37646;DHT22;23489;49.600;6.138;2023-11-21T09:50:42;9.30;99.90
37646;DHT22;23489;49.600;6.138;2023-11-21T09:53:19;9.40;99.90
37646;DHT22;23489;49.600;6.138;2023-11-21T09:55:53;9.70;99.90
37646;DHT22;23489;49.600;6.138;2023-11-21T09:58:20;9.80;99.90
37646;DHT22;23489;49.600;6.138;2023-11-21T10:00:49;9.80;99.90
37646;DHT22;23489;49.600;6.138;2023-11-21T10:03:15;9.80;99.90
37646;DHT22;23489;49.600;6.138;2023-11-21T10:05:43;9.80;99.90
37646;DHT22;23489;49.600;6.138;2023-11-21T10:08:11;9.60;99.90
37646;DHT22;23489;49.600;6.138;2023-11-21T10:10:38;9.50;99.90
37646;DHT22;23489;49.600;6.138;2023-11-21T10:13:13;9.50;99.90
37646;DHT22;23489;49.600;6.138;2023-11-21T10:15:42;9.60;99.90
37646;DHT22;23489;49.600;6.138;2023-11-21T10:18:14;9.60;99.90
37646;DHT22;23489;49.600;6.138;2023-11-21T10:20:41;9.60;99.90
37646;DHT22;23489;49.600;6.138;2023-11-21T10:23:07;9.60;99.90
37646;DHT22;23489;49.600;6.138;2023-11-21T10:25:37;9.60;99.90
37646;DHT22;23489;49.600;6.138;2023-11-21T10:28:03;9.60;99.90
37646;DHT22;23489;49.600;6.138;2023-11-21T10:30:36;9.60;99.90
37646;DHT22;23489;49.600;6.138;2023-11-21T10:33:03;9.60;99.90
37646;DHT22;23489;49.600;6.138;2023-11-21T10:35:38;9.70;99.90
37646;DHT22;23489;49.600;6.138;2023-11-21T10:38:05;9.80;99.90
37646;DHT22;23489;49.600;6.138;2023-11-21T10:40:30;9.90;99.90
37646;DHT22;23489;49.600;6.138;2023-11-21T10:43:05;10.10;99.90
37646;DHT22;23489;49.600;6.138;2023-11-21T10:45:31;10.20;99.90
37646;DHT22;23489;49.600;6.138;2023-11-21T10:47:56;10.20;99.90
37646;DHT22;23489;49.600;6.138;2023-11-21T10:50:23;10.10;99.90
37646;DHT22;23489;49.600;6.138;2023-11-21T10:52:51;10.20;99.90
37646;DHT22;23489;49.600;6.138;2023-11-21T10:55:19;10.30;99.90
37646;DHT22;23489;49.600;6.138;2023-11-21T10:57:48;10.30;99.90
37646;DHT22;23489;49.600;6.138;2023-11-21T11:00:13;10.40;99.90
37646;DHT22;23489;49.600;6.138;2023-11-21T11:02:40;10.40;99.90
37646;DHT22;23489;49.600;6.138;2023-11-21T11:05:05;10.50;99.90
37646;DHT22;23489;49.600;6.138;2023-11-21T11:07:31;10.50;99.90
37646;DHT22;23489;49.600;6.138;2023-11-21T11:09:59;10.60;99.90
37646;DHT22;23489;49.600;6.138;2023-11-21T11:12:25;10.70;99.90
37646;DHT22;23489;49.600;6.138;2023-11-21T11:14:51;10.60;99.90
37646;DHT22;23489;49.600;6.138;2023-11-21T11:17:18;10.60;99.90
37646;DHT22;23489;49.600;6.138;2023-11-21T11:19:46;10.70;99.90
37646;DHT22;23489;49.600;6.138;2023-11-21T11:29:51;10.40;99.90
37646;DHT22;23489;49.600;6.138;2023-11-21T11:32:30;10.50;99.90
37646;DHT22;23489;49.600;6.138;2023-11-21T11:35:07;10.50;99.90
37646;DHT22;23489;49.600;6.138;2023-11-21T11:37:35;10.40;99.90
37646;DHT22;23489;49.600;6.138;2023-11-21T11:40:01;10.40;99.90
37646;DHT22;23489;49.600;6.138;2023-11-21T11:42:32;10.20;99.90
37646;DHT22;23489;49.600;6.138;2023-11-21T11:44:58;10.20;99.90
37646;DHT22;23489;49.600;6.138;2023-11-21T11:47:31;10.30;99.90
37646;DHT22;23489;49.600;6.138;2023-11-21T11:50:03;10.30;99.90
37646;DHT22;23489;49.600;6.138;2023-11-21T11:52:36;10.40;99.90
37646;DHT22;23489;49.600;6.138;2023-11-21T11:55:02;10.40;99.90
37646;DHT22;23489;49.600;6.138;2023-11-21T11:57:31;10.50;99.90
37646;DHT22;23489;49.600;6.138;2023-11-21T12:02:41;10.60;99.90
37646;DHT22;23489;49.600;6.138;2023-11-21T12:05:10;10.50;99.90
37646;DHT22;23489;49.600;6.138;2023-11-21T12:07:44;10.50;99.90
37646;DHT22;23489;49.600;6.138;2023-11-21T12:10:12;10.50;99.90
37646;DHT22;23489;49.600;6.138;2023-11-21T12:12:47;10.50;99.90
37646;DHT22;23489;49.600;6.138;2023-11-21T12:15:12;10.60;99.90
37646;DHT22;23489;49.600;6.138;2023-11-21T12:17:39;10.70;99.90
37646;DHT22;23489;49.600;6.138;2023-11-21T12:20:05;10.70;99.90
37646;DHT22;23489;49.600;6.138;2023-11-21T12:22:43;10.80;99.90
37646;DHT22;23489;49.600;6.138;2023-11-21T12:25:09;10.70;99.90
37646;DHT22;23489;49.600;6.138;2023-11-21T12:27:35;10.80;99.90
37646;DHT22;23489;49.600;6.138;2023-11-21T12:30:01;10.70;99.90
37646;DHT22;23489;49.600;6.138;2023-11-21T12:32:26;10.70;99.90
37646;DHT22;23489;49.600;6.138;2023-11-21T12:34:52;10.70;99.90
37646;DHT22;23489;49.600;6.138;2023-11-21T12:37:17;10.80;99.90
37646;DHT22;23489;49.600;6.138;2023-11-21T12:39:43;10.70;99.90
37646;DHT22;23489;49.600;6.138;2023-11-21T12:42:09;10.60;99.90
37646;DHT22;23489;49.600;6.138;2023-11-21T12:44:35;10.60;99.90
37646;DHT22;23489;49.600;6.138;2023-11-21T12:47:01;10.60;99.90
37646;DHT22;23489;49.600;6.138;2023-11-21T12:49:27;10.60;99.90
37646;DHT22;23489;49.600;6.138;2023-11-21T12:51:53;10.50;99.90
37646;DHT22;23489;49.600;6.138;2023-11-21T12:54:19;10.60;99.90
37646;DHT22;23489;49.600;6.138;2023-11-21T12:56:45;10.60;99.90
37646;DHT22;23489;49.600;6.138;2023-11-21T12:59:12;10.60;99.90
37646;DHT22;23489;49.600;6.138;2023-11-21T13:01:41;10.60;99.90
37646;DHT22;23489;49.600;6.138;2023-11-21T13:04:07;10.60;99.90
37646;DHT22;23489;49.600;6.138;2023-11-21T13:06:32;10.60;99.90
37646;DHT22;23489;49.600;6.138;2023-11-21T13:09:03;10.70;99.90
37646;DHT22;23489;49.600;6.138;2023-11-21T13:11:33;10.70;99.90
37646;DHT22;23489;49.600;6.138;2023-11-21T13:13:59;10.70;99.90
37646;DHT22;23489;49.600;6.138;2023-11-21T13:16:26;10.70;99.90
37646;DHT22;23489;49.600;6.138;2023-11-21T13:18:51;10.80;99.90
37646;DHT22;23489;49.600;6.138;2023-11-21T13:21:17;10.90;99.90
37646;DHT22;23489;49.600;6.138;2023-11-21T13:23:43;10.70;99.90
37646;DHT22;23489;49.600;6.138;2023-11-21T13:26:11;10.70;99.90
37646;DHT22;23489;49.600;6.138;2023-11-21T13:28:37;10.70;99.90
37646;DHT22;23489;49.600;6.138;2023-11-21T13:31:03;10.60;99.90
37646;DHT22;23489;49.600;6.138;2023-11-21T13:33:46;10.70;99.90
37646;DHT22;23489;49.600;6.138;2023-11-21T13:36:16;10.80;99.90
37646;DHT22;23489;49.600;6.138;2023-11-21T13:38:48;10.90;99.90
37646;DHT22;23489;49.600;6.138;2023-11-21T13:41:14;10.80;99.90
37646;DHT22;23489;49.600;6.138;2023-11-21T13:43:40;10.90;99.90
37646;DHT22;23489;49.600;6.138;2023-11-21T13:46:09;10.90;99.90
37646;DHT22;23489;49.600;6.138;2023-11-21T13:48:46;10.80;99.90
37646;DHT22;23489;49.600;6.138;2023-11-21T13:51:19;10.70;99.90
37646;DHT22;23489;49.600;6.138;2023-11-21T13:53:45;10.70;99.90
37646;DHT22;23489;49.600;6.138;2023-11-21T13:56:13;10.70;99.90
37646;DHT22;23489;49.600;6.138;2023-11-21T13:58:43;10.60;99.90
37646;DHT22;23489;49.600;6.138;2023-11-21T14:01:17;10.60;99.90
37646;DHT22;23489;49.600;6.138;2023-11-21T14:03:58;10.60;99.90
37646;DHT22;23489;49.600;6.138;2023-11-21T14:06:33;10.60;99.90
37646;DHT22;23489;49.600;6.138;2023-11-21T14:09:05;10.50;99.90
37646;DHT22;23489;49.600;6.138;2023-11-21T14:11:32;10.40;99.90
37646;DHT22;23489;49.600;6.138;2023-11-21T14:14:00;10.50;99.90
37646;DHT22;23489;49.600;6.138;2023-11-21T14:16:25;10.50;99.90
37646;DHT22;23489;49.600;6.138;2023-11-21T14:18:51;10.50;99.90
37646;DHT22;23489;49.600;6.138;2023-11-21T14:21:29;10.40;99.90
37646;DHT22;23489;49.600;6.138;2023-11-21T14:23:54;10.30;99.90
37646;DHT22;23489;49.600;6.138;2023-11-21T14:26:20;10.30;99.90
37646;DHT22;23489;49.600;6.138;2023-11-21T14:28:46;10.20;99.90
37646;DHT22;23489;49.600;6.138;2023-11-21T14:31:14;10.10;99.90
37646;DHT22;23489;49.600;6.138;2023-11-21T14:33:42;10.00;99.90
37646;DHT22;23489;49.600;6.138;2023-11-21T14:36:08;10.00;99.90
37646;DHT22;23489;49.600;6.138;2023-11-21T14:38:38;9.90;99.90
37646;DHT22;23489;49.600;6.138;2023-11-21T14:41:05;9.90;99.90
37646;DHT22;23489;49.600;6.138;2023-11-21T14:43:34;9.90;99.90
37646;DHT22;23489;49.600;6.138;2023-11-21T14:46:01;9.90;99.90
37646;DHT22;23489;49.600;6.138;2023-11-21T14:48:28;9.90;99.90
37646;DHT22;23489;49.600;6.138;2023-11-21T14:51:13;9.90;99.90
37646;DHT22;23489;49.600;6.138;2023-11-21T14:53:56;9.90;99.90
37646;DHT22;23489;49.600;6.138;2023-11-21T14:56:26;9.90;99.90
37646;DHT22;23489;49.600;6.138;2023-11-21T14:58:57;9.90;99.90
37646;DHT22;23489;49.600;6.138;2023-11-21T15:01:24;9.80;99.90
37646;DHT22;23489;49.600;6.138;2023-11-21T15:04:08;9.80;99.90
37646;DHT22;23489;49.600;6.138;2023-11-21T15:06:40;9.70;99.90
37646;DHT22;23489;49.600;6.138;2023-11-21T15:09:08;9.70;99.90
37646;DHT22;23489;49.600;6.138;2023-11-21T15:11:35;9.70;99.90
37646;DHT22;23489;49.600;6.138;2023-11-21T15:14:02;9.60;99.90
37646;DHT22;23489;49.600;6.138;2023-11-21T15:16:32;9.60;99.90
37646;DHT22;23489;49.600;6.138;2023-11-21T15:18:58;9.60;99.90
37646;DHT22;23489;49.600;6.138;2023-11-21T15:21:23;9.50;99.90
37646;DHT22;23489;49.600;6.138;2023-11-21T15:23:49;9.50;99.90
37646;DHT22;23489;49.600;6.138;2023-11-21T15:26:16;9.50;99.90
37646;DHT22;23489;49.600;6.138;2023-11-21T15:28:41;9.50;99.90
37646;DHT22;23489;49.600;6.138;2023-11-21T15:31:07;9.50;99.90
37646;DHT22;23489;49.600;6.138;2023-11-21T15:33:33;9.50;99.90
37646;DHT22;23489;49.600;6.138;2023-11-21T15:36:01;9.50;99.90
37646;DHT22;23489;49.600;6.138;2023-11-21T15:38:27;9.50;99.90
37646;DHT22;23489;49.600;6.138;2023-11-21T15:40:53;9.50;99.90
37646;DHT22;23489;49.600;6.138;2023-11-21T15:43:19;9.40;99.90
37646;DHT22;23489;49.600;6.138;2023-11-21T15:45:45;9.40;99.90
37646;DHT22;23489;49.600;6.138;2023-11-21T15:48:10;9.40;99.90
37646;DHT22;23489;49.600;6.138;2023-11-21T15:50:36;9.40;99.90